Time;durP1;ratioP1;P1;durP2;ratioP2;P2;SDS_P1;SDS_P2;PMS_P1;PMS_P2;Temp;Humidity;BMP_temperature;BMP_pressure;BME280_temperature;BME280_humidity;BME280_pressure;Samples;Min_cycle;Max_cycle;Signal;HPM_P1;HPM_P2
2021/05/07 00:02:09;;;;;;;7.90;3.65;;;11.20;56.20;;;;;;5049414;28;20521;-63
2021/05/07 00:04:37;;;;;;;6.47;3.08;;;11.20;56.20;;;;;;5047946;28;20044;-63
2021/05/07 00:07:04;;;;;;;4.78;3.00;;;11.20;56.30;;;;;;5031122;28;20051;-63
2021/05/07 00:09:32;;;;;;;7.40;3.60;;;11.20;56.30;;;;;;5049058;28;20031;-63
2021/05/07 00:11:58;;;;;;;10.82;3.85;;;11.20;56.20;;;;;;5050613;28;20047;-63
2021/05/07 00:14:24;;;;;;;4.68;3.03;;;11.20;56.20;;;;;;5044857;28;21041;-63
2021/05/07 00:16:56;;;;;;;7.78;3.38;;;11.10;56.20;;;;;;5046402;28;20060;-63
2021/05/07 00:19:23;;;;;;;6.45;3.60;;;11.10;56.30;;;;;;5052059;28;20111;-63
2021/05/07 00:21:49;;;;;;;8.13;3.70;;;11.10;56.30;;;;;;5051561;28;20044;-63
2021/05/07 00:24:14;;;;;;;13.18;5.10;;;11.00;56.40;;;;;;5044932;28;20047;-63
2021/05/07 00:26:40;;;;;;;7.47;3.25;;;11.00;56.30;;;;;;5029167;28;20051;-63
2021/05/07 00:29:08;;;;;;;4.43;3.28;;;11.00;56.40;;;;;;5048822;28;20573;-63
2021/05/07 00:31:33;;;;;;;4.65;3.00;;;11.00;56.50;;;;;;5051807;28;20658;-63
2021/05/07 00:34:04;;;;;;;6.25;3.28;;;11.00;56.70;;;;;;5054942;28;20040;-62
2021/05/07 00:36:31;;;;;;;4.35;3.00;;;10.90;56.70;;;;;;5050188;28;20047;-63
2021/05/07 00:38:57;;;;;;;5.72;3.97;;;10.90;56.90;;;;;;5051981;28;20036;-63
2021/05/07 00:41:25;;;;;;;7.85;3.70;;;10.90;56.90;;;;;;5030776;28;20067;-63
2021/05/07 00:43:50;;;;;;;6.60;3.85;;;10.90;57.00;;;;;;5046859;28;20097;-63
2021/05/07 00:46:16;;;;;;;8.25;4.40;;;11.00;57.10;;;;;;5047322;28;20684;-62
2021/05/07 00:48:46;;;;;;;12.82;4.30;;;11.00;57.10;;;;;;5054776;28;20061;-63
2021/05/07 00:51:14;;;;;;;6.43;3.72;;;11.00;57.20;;;;;;5052299;28;20036;-63
2021/05/07 00:53:44;;;;;;;5.70;3.75;;;11.00;57.20;;;;;;5047324;28;20846;-63
2021/05/07 00:56:10;;;;;;;9.18;4.55;;;11.00;57.30;;;;;;5032395;28;20046;-63
2021/05/07 00:58:36;;;;;;;6.30;4.13;;;11.00;57.30;;;;;;5048367;28;20162;-62
2021/05/07 01:01:01;;;;;;;6.55;4.13;;;11.00;57.40;;;;;;5049314;28;20036;-63
2021/05/07 01:03:29;;;;;;;11.25;4.05;;;11.00;57.40;;;;;;5033891;28;20082;-63
2021/05/07 01:05:55;;;;;;;7.85;4.35;;;11.00;57.50;;;;;;5049386;28;20097;-63
2021/05/07 01:08:23;;;;;;;8.20;4.15;;;11.00;57.50;;;;;;5048728;28;20041;-63
2021/05/07 01:10:52;;;;;;;10.07;3.92;;;11.00;57.50;;;;;;5053027;28;20463;-62
2021/05/07 01:13:22;;;;;;;8.73;4.20;;;11.00;57.50;;;;;;5032005;28;20041;-63
2021/05/07 01:15:50;;;;;;;10.13;4.45;;;11.00;57.50;;;;;;5046803;28;20153;-63
2021/05/07 01:18:16;;;;;;;8.75;4.20;;;11.00;57.50;;;;;;5041812;28;20468;-63
2021/05/07 01:20:44;;;;;;;5.90;4.45;;;11.00;57.50;;;;;;5053127;28;20040;-63
2021/05/07 01:23:11;;;;;;;6.82;4.40;;;11.00;57.60;;;;;;5044909;28;20127;-62
2021/05/07 01:25:42;;;;;;;7.63;4.10;;;11.00;57.60;;;;;;5045075;28;20032;-62
2021/05/07 01:28:12;;;;;;;7.47;4.70;;;11.00;57.60;;;;;;5046027;28;20033;-63
2021/05/07 01:30:44;;;;;;;6.72;4.75;;;11.00;57.60;;;;;;5040136;28;20482;-62
2021/05/07 01:33:18;;;;;;;8.18;4.82;;;11.00;57.60;;;;;;5040619;28;20504;-63
2021/05/07 01:35:47;;;;;;;10.70;5.10;;;11.00;57.50;;;;;;5032616;28;20097;-62
2021/05/07 01:38:17;;;;;;;6.47;4.60;;;11.00;57.50;;;;;;5030967;28;20174;-62
2021/05/07 01:40:45;;;;;;;8.57;5.20;;;11.00;57.50;;;;;;5046396;28;20032;-63
2021/05/07 01:43:11;;;;;;;10.75;6.15;;;11.00;57.50;;;;;;5041337;28;20060;-63
2021/05/07 01:45:39;;;;;;;7.93;5.38;;;11.00;57.40;;;;;;5043220;28;20830;-63
2021/05/07 01:48:07;;;;;;;10.20;6.40;;;10.90;57.40;;;;;;5049208;28;20559;-63
2021/05/07 01:50:40;;;;;;;7.55;5.70;;;10.90;57.50;;;;;;5048031;28;20044;-62
2021/05/07 01:53:11;;;;;;;7.72;5.40;;;10.80;57.50;;;;;;5033984;28;20124;-62
2021/05/07 01:55:42;;;;;;;8.38;5.55;;;10.80;57.40;;;;;;5051837;28;20047;-62
2021/05/07 01:58:10;;;;;;;9.38;5.85;;;10.80;57.50;;;;;;5036529;28;20117;-62
2021/05/07 02:00:39;;;;;;;8.93;5.78;;;10.80;57.60;;;;;;5042422;28;20063;-63
2021/05/07 02:03:11;;;;;;;10.73;5.97;;;10.70;57.60;;;;;;5047951;28;20662;-63
2021/05/07 02:05:39;;;;;;;8.48;6.15;;;10.70;57.60;;;;;;5036127;28;20122;-63
2021/05/07 02:08:06;;;;;;;9.20;6.20;;;10.70;57.60;;;;;;5051509;28;20051;-63
2021/05/07 02:10:35;;;;;;;8.30;5.78;;;10.60;58.20;;;;;;5048472;28;20036;-62
2021/05/07 02:13:04;;;;;;;10.80;6.47;;;10.60;57.70;;;;;;5030978;28;20032;-62
2021/05/07 02:15:33;;;;;;;9.48;6.72;;;10.60;57.80;;;;;;5050231;28;21850;-63
2021/05/07 02:17:59;;;;;;;8.95;5.85;;;10.60;57.80;;;;;;5027412;28;20132;-63
2021/05/07 02:20:29;;;;;;;9.48;6.28;;;10.60;57.80;;;;;;5051331;28;20373;-62
2021/05/07 02:22:58;;;;;;;8.63;5.65;;;10.60;57.80;;;;;;5047167;28;20047;-62
2021/05/07 02:25:26;;;;;;;8.30;5.72;;;10.50;57.80;;;;;;5037054;28;20771;-63
2021/05/07 02:27:53;;;;;;;11.35;6.28;;;10.50;57.80;;;;;;5049242;28;20608;-62
2021/05/07 02:30:24;;;;;;;8.30;5.75;;;10.50;57.80;;;;;;5033602;28;20676;-63
2021/05/07 02:32:50;;;;;;;11.35;5.97;;;10.50;57.90;;;;;;5048754;28;20505;-62
2021/05/07 02:35:18;;;;;;;12.10;6.30;;;10.50;58.00;;;;;;5038314;28;20033;-62
2021/05/07 02:37:44;;;;;;;9.43;6.28;;;10.50;58.00;;;;;;5040846;28;20054;-63
2021/05/07 02:40:11;;;;;;;14.55;7.10;;;10.50;58.10;;;;;;5054484;28;20035;-62
2021/05/07 02:42:41;;;;;;;10.25;6.60;;;10.50;58.10;;;;;;5051535;28;20071;-63
2021/05/07 02:45:09;;;;;;;10.70;7.07;;;10.50;58.10;;;;;;5052237;28;20079;-62
2021/05/07 02:47:35;;;;;;;9.10;6.45;;;10.50;58.10;;;;;;5050525;28;20029;-62
2021/05/07 02:50:03;;;;;;;9.45;6.45;;;10.50;58.00;;;;;;5050020;28;20135;-62
2021/05/07 02:52:28;;;;;;;10.13;6.13;;;10.40;58.00;;;;;;5033877;28;20044;-63
2021/05/07 02:54:56;;;;;;;8.57;6.10;;;10.40;58.10;;;;;;5048450;28;21037;-64
2021/05/07 02:57:24;;;;;;;12.45;6.32;;;10.40;58.30;;;;;;5047599;28;20113;-63
2021/05/07 02:59:52;;;;;;;8.35;5.85;;;10.40;58.40;;;;;;5034769;28;20101;-63
2021/05/07 03:02:22;;;;;;;10.43;6.57;;;10.40;58.50;;;;;;5048187;28;20464;-63
2021/05/07 03:04:48;;;;;;;10.50;6.13;;;10.50;58.60;;;;;;5048615;28;20576;-63
2021/05/07 03:07:16;;;;;;;14.98;6.90;;;10.50;58.50;;;;;;5037345;28;20044;-63
2021/05/07 03:09:43;;;;;;;11.07;5.93;;;10.50;58.50;;;;;;5049463;28;20044;-63
2021/05/07 03:12:09;;;;;;;7.95;5.97;;;10.50;58.50;;;;;;5055012;28;20045;-62
2021/05/07 03:14:34;;;;;;;7.90;5.47;;;10.50;58.30;;;;;;5049411;28;20036;-62
2021/05/07 03:17:00;;;;;;;10.40;5.50;;;10.50;58.10;;;;;;5030775;28;20189;-62
2021/05/07 03:19:28;;;;;;;8.95;5.53;;;10.40;58.00;;;;;;5042669;28;20108;-63
2021/05/07 03:21:53;;;;;;;6.55;5.13;;;10.40;58.10;;;;;;5054382;28;20036;-62
2021/05/07 03:24:21;;;;;;;10.15;5.90;;;10.40;58.20;;;;;;5050889;28;20071;-62
2021/05/07 03:26:49;;;;;;;9.95;6.10;;;10.30;58.20;;;;;;5048013;28;20331;-62
2021/05/07 03:29:19;;;;;;;8.65;5.90;;;10.30;58.90;;;;;;5051220;28;20035;-62
2021/05/07 03:31:49;;;;;;;9.32;5.55;;;10.30;58.40;;;;;;5040808;28;20034;-63
2021/05/07 03:34:15;;;;;;;8.73;5.80;;;10.30;58.50;;;;;;5048214;28;20031;-62
2021/05/07 03:36:43;;;;;;;9.10;5.10;;;10.30;59.10;;;;;;5044302;28;20426;-62
2021/05/07 03:39:10;;;;;;;7.68;5.47;;;10.30;58.50;;;;;;5053976;28;20044;-62
2021/05/07 03:41:36;;;;;;;6.63;5.43;;;10.30;58.50;;;;;;5049515;28;20051;-62
2021/05/07 03:44:02;;;;;;;6.00;4.72;;;10.40;58.50;;;;;;5026142;28;20040;-62
2021/05/07 03:46:28;;;;;;;9.40;5.65;;;10.30;58.40;;;;;;5043687;28;20443;-62
2021/05/07 03:48:56;;;;;;;6.03;4.88;;;;;;;;;;5052721;28;20047;-62
2021/05/07 03:51:24;;;;;;;7.57;5.00;;;10.30;57.90;;;;;;5049291;28;20201;-62
2021/05/07 03:53:52;;;;;;;5.65;4.72;;;10.30;58.50;;;;;;5045192;28;20039;-62
2021/05/07 03:56:19;;;;;;;6.07;4.65;;;10.30;58.50;;;;;;5029823;28;20119;-62
2021/05/07 03:58:48;;;;;;;9.27;4.72;;;10.20;58.40;;;;;;5040370;28;20037;-63
2021/05/07 04:01:13;;;;;;;11.20;4.95;;;10.20;58.50;;;;;;5029878;28;20156;-61
2021/05/07 04:03:39;;;;;;;6.20;4.88;;;10.20;58.50;;;;;;5040883;28;20040;-62
2021/05/07 04:06:08;;;;;;;5.55;3.80;;;10.20;58.40;;;;;;5053260;28;20119;-62
2021/05/07 04:08:38;;;;;;;7.72;4.47;;;10.20;58.40;;;;;;5060426;28;20032;-62
2021/05/07 04:11:24;;;;;;;6.68;4.57;;;10.20;58.40;;;;;;5035755;28;20047;-61
2021/05/07 04:13:55;;;;;;;8.43;5.15;;;10.10;58.40;;;;;;5039247;28;20040;-62
2021/05/07 04:16:20;;;;;;;6.63;5.05;;;10.10;58.50;;;;;;5047477;28;20051;-63
2021/05/07 04:18:46;;;;;;;4.70;3.90;;;10.20;59.10;;;;;;5024091;28;20079;-62
2021/05/07 04:21:14;;;;;;;8.40;5.28;;;10.20;58.50;;;;;;5041477;28;20285;-62
2021/05/07 04:23:40;;;;;;;5.38;4.47;;;10.10;58.40;;;;;;5050745;28;20447;-63
2021/05/07 04:26:05;;;;;;;7.75;4.50;;;10.10;58.40;;;;;;5028444;28;20040;-62
2021/05/07 04:28:31;;;;;;;7.97;4.50;;;10.10;58.50;;;;;;5047831;28;24078;-63
2021/05/07 04:30:59;;;;;;;4.65;4.15;;;10.20;58.50;;;;;;5036405;28;20390;-63
2021/05/07 04:33:25;;;;;;;6.78;4.88;;;10.10;58.40;;;;;;5047067;28;20548;-62
2021/05/07 04:35:55;;;;;;;8.88;4.97;;;10.10;58.30;;;;;;5041654;28;20386;-62
2021/05/07 04:38:23;;;;;;;7.63;4.72;;;10.10;58.40;;;;;;5041313;28;20090;-62
2021/05/07 04:40:48;;;;;;;6.05;4.72;;;10.10;58.40;;;;;;5046593;28;20085;-62
2021/05/07 04:43:14;;;;;;;4.78;4.22;;;10.20;58.60;;;;;;5041598;28;20063;-64
2021/05/07 04:45:39;;;;;;;7.88;4.60;;;10.20;59.10;;;;;;5052017;28;20032;-62
2021/05/07 04:48:15;;;;;;;6.47;4.25;;;10.20;58.50;;;;;;5057153;28;20213;-63
2021/05/07 04:50:42;;;;;;;6.75;4.05;;;10.20;58.40;;;;;;5053502;28;20040;-62
2021/05/07 04:53:07;;;;;;;7.55;4.53;;;10.20;58.40;;;;;;5059769;28;20086;-62
2021/05/07 04:55:33;;;;;;;6.03;4.57;;;10.20;58.40;;;;;;5055731;28;20036;-63
2021/05/07 04:57:58;;;;;;;6.18;4.40;;;10.20;58.50;;;;;;5052557;28;20094;-63
2021/05/07 05:00:26;;;;;;;5.85;4.40;;;10.20;58.50;;;;;;5051158;28;20071;-63
2021/05/07 05:02:54;;;;;;;6.72;4.90;;;10.20;58.50;;;;;;5054071;28;20048;-63
2021/05/07 05:05:20;;;;;;;6.88;4.85;;;10.20;58.70;;;;;;5050405;28;20407;-63
2021/05/07 05:07:54;;;;;;;9.35;4.97;;;10.20;58.70;;;;;;5050820;28;20032;-63
2021/05/07 05:10:20;;;;;;;6.20;5.25;;;10.20;58.60;;;;;;5055241;28;20506;-63
2021/05/07 05:12:46;;;;;;;7.78;5.20;;;10.20;58.60;;;;;;5053249;28;20035;-63
2021/05/07 05:15:12;;;;;;;8.10;5.53;;;10.20;58.70;;;;;;5043244;28;20071;-63
2021/05/07 05:17:38;;;;;;;7.88;4.95;;;10.20;58.80;;;;;;5057788;28;20509;-63
2021/05/07 05:20:08;;;;;;;6.78;5.13;;;10.20;58.90;;;;;;5054068;28;20044;-63
2021/05/07 05:22:34;;;;;;;8.80;5.90;;;10.20;59.00;;;;;;5046362;28;21224;-63
2021/05/07 05:25:04;;;;;;;9.35;6.10;;;10.20;59.10;;;;;;5040412;28;20119;-63
2021/05/07 05:27:31;;;;;;;6.47;5.20;;;10.20;59.20;;;;;;5040582;28;20044;-63
2021/05/07 05:29:56;;;;;;;8.13;5.03;;;10.30;59.20;;;;;;5047788;28;20233;-63
2021/05/07 05:32:22;;;;;;;10.82;5.32;;;10.30;59.20;;;;;;5049698;28;20078;-63
2021/05/07 05:34:47;;;;;;;6.25;4.70;;;10.30;59.10;;;;;;5046282;28;20036;-63
2021/05/07 05:37:15;;;;;;;8.90;4.82;;;10.30;59.10;;;;;;5054287;28;20067;-63
2021/05/07 05:39:43;;;;;;;6.88;4.88;;;10.40;59.30;;;;;;5040196;28;20119;-63
2021/05/07 05:42:09;;;;;;;6.32;5.03;;;10.40;59.30;;;;;;5053757;28;20043;-63
2021/05/07 05:44:34;;;;;;;9.50;4.57;;;10.40;59.20;;;;;;5035906;28;20040;-63
2021/05/07 05:47:02;;;;;;;6.43;5.18;;;10.50;59.30;;;;;;5053089;28;20754;-63
2021/05/07 05:49:32;;;;;;;5.50;4.75;;;10.50;59.20;;;;;;5057547;28;20055;-63
2021/05/07 05:52:00;;;;;;;5.80;4.68;;;10.50;59.30;;;;;;5056502;28;20661;-63
2021/05/07 05:54:28;;;;;;;5.22;4.43;;;10.50;59.30;;;;;;5039688;28;20044;-63
2021/05/07 05:56:54;;;;;;;6.88;4.30;;;10.50;59.30;;;;;;5039715;28;20075;-63
2021/05/07 05:59:19;;;;;;;5.50;4.00;;;10.60;59.40;;;;;;5052002;28;20564;-64
2021/05/07 06:01:47;;;;;;;6.70;3.80;;;10.60;59.50;;;;;;5029793;28;20373;-63
2021/05/07 06:04:13;;;;;;;8.02;3.90;;;10.70;59.50;;;;;;5034829;28;21646;-62
2021/05/07 06:06:40;;;;;;;4.65;4.13;;;10.80;59.50;;;;;;5048178;28;20044;-63
2021/05/07 06:09:08;;;;;;;9.25;4.15;;;10.80;59.60;;;;;;5051997;28;20132;-63
2021/05/07 06:11:34;;;;;;;4.63;3.72;;;10.90;59.60;;;;;;5052857;28;20273;-63
2021/05/07 06:13:59;;;;;;;5.60;3.60;;;11.00;59.40;;;;;;5052733;28;20511;-63
2021/05/07 06:16:27;;;;;;;3.58;3.20;;;11.10;59.00;;;;;;5033567;28;20086;-63
2021/05/07 06:18:54;;;;;;;3.88;3.47;;;11.10;58.80;;;;;;5056838;28;20075;-63
2021/05/07 06:21:24;;;;;;;3.60;3.30;;;11.10;58.80;;;;;;5037112;28;20040;-63
2021/05/07 06:23:50;;;;;;;3.63;3.13;;;11.20;58.90;;;;;;5045015;28;20032;-63
2021/05/07 06:26:15;;;;;;;5.00;3.08;;;11.30;59.00;;;;;;5056488;28;20508;-63
2021/05/07 06:28:43;;;;;;;5.40;3.17;;;11.30;58.90;;;;;;5058454;28;20040;-63
2021/05/07 06:31:09;;;;;;;3.72;2.80;;;11.40;58.90;;;;;;5049242;28;23617;-63
2021/05/07 06:33:35;;;;;;;3.28;2.53;;;11.60;59.00;;;;;;5045121;28;20044;-63
2021/05/07 06:36:00;;;;;;;3.75;2.80;;;11.80;58.80;;;;;;5056543;28;20039;-63
2021/05/07 06:38:26;;;;;;;3.17;2.33;;;11.90;59.00;;;;;;5058352;28;20066;-64
2021/05/07 06:40:52;;;;;;;6.47;2.40;;;12.00;58.20;;;;;;5033918;28;20028;-64
2021/05/07 06:43:19;;;;;;;2.58;2.38;;;12.20;58.00;;;;;;5062646;28;20029;-63
2021/05/07 06:45:45;;;;;;;3.05;2.70;;;12.30;58.00;;;;;;5051651;28;20044;-63
2021/05/07 06:48:13;;;;;;;3.38;2.50;;;12.40;57.60;;;;;;5052814;28;20028;-63
2021/05/07 06:50:40;;;;;;;3.65;2.47;;;12.50;57.20;;;;;;5050174;28;20053;-63
2021/05/07 06:53:08;;;;;;;4.75;2.50;;;12.60;57.10;;;;;;5053038;28;20043;-63
2021/05/07 06:55:34;;;;;;;3.65;2.45;;;12.70;56.80;;;;;;5055813;28;20409;-64
2021/05/07 06:57:59;;;;;;;3.78;2.70;;;12.80;56.50;;;;;;5063821;28;20036;-64
2021/05/07 07:00:25;;;;;;;3.92;2.78;;;12.90;56.10;;;;;;5073303;28;20040;-63
2021/05/07 07:02:53;;;;;;;3.53;2.58;;;12.90;55.90;;;;;;5074293;28;20037;-63
2021/05/07 07:05:24;;;;;;;4.65;2.80;;;12.90;55.70;;;;;;5074845;28;20047;-63
2021/05/07 07:07:52;;;;;;;3.05;2.75;;;13.00;56.30;;;;;;5059364;28;20051;-63
2021/05/07 07:10:20;;;;;;;3.63;2.47;;;13.20;56.40;;;;;;5070655;28;20129;-63
2021/05/07 07:12:46;;;;;;;2.50;2.22;;;13.70;55.90;;;;;;5071380;28;20162;-63
2021/05/07 07:15:12;;;;;;;3.53;2.30;;;13.90;54.30;;;;;;5074039;28;20124;-64
2021/05/07 07:17:40;;;;;;;2.47;2.28;;;14.00;53.50;;;;;;5069356;28;20425;-63
2021/05/07 07:20:10;;;;;;;4.07;2.67;;;13.90;53.10;;;;;;5075910;28;20169;-63
2021/05/07 07:22:36;;;;;;;2.60;1.95;;;;;;;;;;5055364;28;20054;-64
2021/05/07 07:25:05;;;;;;;7.38;1.98;;;;;;;;;;5068948;28;20122;-63
2021/05/07 07:27:33;;;;;;;2.55;1.77;;;14.60;55.40;;;;;;5070846;28;20032;-64
2021/05/07 07:30:01;;;;;;;2.17;1.42;;;20.10;46.00;;;;;;5060430;28;20502;-63
2021/05/07 07:32:31;;;;;;;3.10;1.60;;;20.70;43.70;;;;;;5056620;28;20053;-64
2021/05/07 07:35:01;;;;;;;2.53;1.80;;;21.20;41.30;;;;;;5071853;28;20098;-63
2021/05/07 07:37:27;;;;;;;2.22;1.83;;;20.80;39.90;;;;;;5068082;28;20032;-63
2021/05/07 07:39:52;;;;;;;1.95;1.85;;;20.20;40.00;;;;;;5071055;28;20038;-63
2021/05/07 07:42:18;;;;;;;2.42;1.67;;;19.70;40.90;;;;;;5072176;28;20032;-63
2021/05/07 07:44:48;;;;;;;1.50;1.40;;;19.60;42.10;;;;;;5068117;28;20367;-63
2021/05/07 07:47:13;;;;;;;3.13;1.50;;;19.90;40.80;;;;;;5072602;28;20191;-63
2021/05/07 07:49:39;;;;;;;2.45;1.67;;;19.70;40.30;;;;;;5067171;28;20525;-63
2021/05/07 07:52:07;;;;;;;5.85;1.60;;;19.60;41.00;;;;;;5066148;28;20677;-64
2021/05/07 07:54:35;;;;;;;1.85;1.50;;;20.50;40.30;;;;;;5054024;28;20044;-64
2021/05/07 07:57:05;;;;;;;2.83;1.25;;;22.00;38.60;;;;;;5075504;28;20093;-64
2021/05/07 07:59:35;;;;;;;1.20;1.10;;;23.80;36.00;;;;;;5064252;28;20059;-64
2021/05/07 08:02:01;;;;;;;2.53;1.38;;;25.30;33.40;;;;;;5047172;28;20445;-64
2021/05/07 08:04:29;;;;;;;2.88;1.15;;;25.80;30.90;;;;;;5060737;28;20106;-64
2021/05/07 08:06:57;;;;;;;1.75;1.30;;;25.40;31.20;;;;;;5068253;28;20118;-64
2021/05/07 08:09:22;;;;;;;2.72;1.55;;;24.90;30.40;;;;;;5071151;28;20127;-63
2021/05/07 08:11:50;;;;;;;4.82;1.88;;;24.00;30.70;;;;;;5050404;28;20516;-62
2021/05/07 08:14:20;;;;;;;3.47;1.08;;;22.80;31.60;;;;;;5069038;28;20279;-64
2021/05/07 08:16:46;;;;;;;1.83;1.15;;;21.90;33.10;;;;;;5071286;28;20036;-64
2021/05/07 08:19:14;;;;;;;3.03;1.25;;;21.10;34.30;;;;;;5066797;28;20040;-63
2021/05/07 08:21:42;;;;;;;2.28;1.30;;;20.90;35.50;;;;;;5071100;28;20116;-63
2021/05/07 08:24:09;;;;;;;1.30;1.20;;;21.10;34.80;;;;;;5071493;28;20501;-64
2021/05/07 08:26:37;;;;;;;2.80;1.30;;;20.70;34.80;;;;;;5068023;28;20078;-63
2021/05/07 08:29:03;;;;;;;3.85;1.15;;;20.30;35.70;;;;;;5069782;28;20188;-63
2021/05/07 08:31:31;;;;;;;5.35;1.40;;;20.30;36.30;;;;;;5060117;28;20521;-64
2021/05/07 08:33:56;;;;;;;2.00;1.33;;;21.20;36.00;;;;;;5069920;28;20445;-64
2021/05/07 08:36:22;;;;;;;2.70;1.05;;;22.80;33.60;;;;;;5061125;28;20051;-65
2021/05/07 08:38:48;;;;;;;2.50;0.93;;;24.60;31.30;;;;;;5068468;28;20207;-64
2021/05/07 08:41:13;;;;;;;6.88;1.55;;;26.00;29.50;;;;;;5061430;28;20032;-64
2021/05/07 08:43:42;;;;;;;3.60;1.00;;;26.80;28.40;;;;;;5070758;28;20047;-64
2021/05/07 08:46:08;;;;;;;1.83;0.80;;;;;;;;;;5067716;28;20040;-64
2021/05/07 08:48:34;;;;;;;2.63;1.00;;;;;;;;;;5063496;28;20036;-64
2021/05/07 08:51:01;;;;;;;5.38;1.35;;;;;;;;;;5063502;28;20556;-64
2021/05/07 08:53:27;;;;;;;1.52;1.00;;;;;;;;;;5059943;28;20048;-65
2021/05/07 08:55:55;;;;;;;1.65;1.20;;;;;;;;;;5063744;28;20074;-64
2021/05/07 08:58:21;;;;;;;2.00;0.93;;;;;;;;;;5046437;28;20046;-64
2021/05/07 09:00:49;;;;;;;1.90;0.93;;;27.90;27.70;;;;;;5059977;28;20036;-64
2021/05/07 09:03:18;;;;;;;2.40;1.05;;;28.70;23.20;;;;;;5070487;28;20378;-65
2021/05/07 09:05:44;;;;;;;1.92;1.00;;;;;;;;;;5070738;28;20402;-64
2021/05/07 09:08:10;;;;;;;1.90;0.90;;;;;;;;;;5049153;28;20028;-64
2021/05/07 09:10:37;;;;;;;1.42;0.90;;;27.70;24.40;;;;;;5066725;28;20782;-64
2021/05/07 09:13:06;;;;;;;1.48;0.73;;;;;;;;;;5072120;28;20028;-65
2021/05/07 09:15:48;;;;;;;3.60;1.15;;;;;;;;;;5070219;28;20036;-64
2021/05/07 09:18:15;;;;;;;1.17;0.47;;;29.50;23.80;;;;;;5064188;28;20471;-64
2021/05/07 09:20:47;;;;;;;3.10;0.70;;;27.20;23.40;;;;;;5063796;28;20554;-64
2021/05/07 09:23:13;;;;;;;3.08;0.80;;;26.00;23.60;;;;;;5053137;28;20055;-64
2021/05/07 09:25:51;;;;;;;2.25;0.85;;;24.90;24.50;;;;;;5071152;28;20454;-64
2021/05/07 09:28:17;;;;;;;1.30;0.90;;;23.70;26.30;;;;;;5059543;28;20527;-64
2021/05/07 09:30:45;;;;;;;3.80;1.20;;;22.60;27.50;;;;;;5058494;28;20025;-64
2021/05/07 09:33:15;;;;;;;3.95;1.10;;;21.50;28.90;;;;;;5048546;28;20024;-63
2021/05/07 09:35:44;;;;;;;1.45;1.08;;;20.50;29.70;;;;;;5064294;28;20178;-64
2021/05/07 09:38:18;;;;;;;3.60;1.13;;;19.60;30.70;;;;;;5062415;28;20497;-64
2021/05/07 09:40:44;;;;;;;1.63;1.30;;;18.80;32.70;;;;;;5074536;28;20093;-64
2021/05/07 09:43:12;;;;;;;3.05;1.40;;;18.30;34.40;;;;;;5071160;28;20040;-64
2021/05/07 09:45:45;;;;;;;5.18;1.40;;;17.90;36.10;;;;;;5070048;28;20042;-64
2021/05/07 09:48:24;;;;;;;1.75;1.45;;;17.90;37.60;;;;;;5066663;28;20536;-64
2021/05/07 09:50:57;;;;;;;2.10;1.00;;;19.20;38.10;;;;;;5071578;28;20040;-64
2021/05/07 09:53:29;;;;;;;1.35;1.02;;;21.20;34.90;;;;;;5060722;28;20036;-64
2021/05/07 09:55:59;;;;;;;0.93;0.90;;;23.50;33.00;;;;;;5075424;28;20067;-64
2021/05/07 09:58:26;;;;;;;3.75;1.10;;;;;;;;;;5065912;28;20066;-64
2021/05/07 10:00:51;;;;;;;1.80;0.80;;;25.40;28.90;;;;;;5071230;28;20039;-64
2021/05/07 10:03:17;;;;;;;4.10;1.00;;;25.40;27.30;;;;;;5058311;28;20642;-63
2021/05/07 10:05:47;;;;;;;4.15;1.20;;;24.20;27.40;;;;;;5052437;28;20048;-64
2021/05/07 10:08:13;;;;;;;2.60;0.88;;;23.00;28.90;;;;;;5066995;28;20040;-63
2021/05/07 10:10:42;;;;;;;3.25;1.08;;;22.00;30.00;;;;;;5066704;28;20483;-63
2021/05/07 10:13:11;;;;;;;1.52;0.93;;;21.40;33.50;;;;;;5066156;28;20044;-63
2021/05/07 10:15:41;;;;;;;2.35;0.95;;;22.10;33.60;;;;;;5059052;28;20430;-64
2021/05/07 10:18:11;;;;;;;1.77;0.98;;;23.50;31.50;;;;;;5065354;28;20098;-64
2021/05/07 10:20:38;;;;;;;1.08;0.90;;;25.10;28.90;;;;;;5065571;28;20066;-63
2021/05/07 10:23:20;;;;;;;2.17;0.98;;;25.50;27.20;;;;;;5067193;28;20045;-63
2021/05/07 10:26:06;;;;;;;4.00;0.90;;;24.90;26.60;;;;;;5048224;28;20465;-63
2021/05/07 10:28:51;;;;;;;3.20;1.13;;;23.90;27.10;;;;;;5031008;28;20172;-63
2021/05/07 10:31:19;;;;;;;2.38;1.50;;;22.70;28.20;;;;;;5052487;28;20047;-63
2021/05/07 10:34:06;;;;;;;3.90;1.58;;;21.50;29.40;;;;;;5058213;28;20638;-63
2021/05/07 10:36:42;;;;;;;2.88;1.25;;;20.40;30.90;;;;;;5075654;28;20083;-63
2021/05/07 10:39:20;;;;;;;1.85;1.15;;;19.60;32.20;;;;;;5067464;28;20040;-63
2021/05/07 10:41:47;;;;;;;2.03;1.27;;;18.90;33.30;;;;;;5067867;28;20151;-63
2021/05/07 10:44:14;;;;;;;3.00;1.27;;;18.40;34.30;;;;;;5077388;28;20089;-63
2021/05/07 10:46:40;;;;;;;4.60;1.40;;;18.00;35.10;;;;;;5071024;28;21497;-63
2021/05/07 10:49:09;;;;;;;2.53;1.10;;;17.80;35.70;;;;;;5068990;28;20044;-63
2021/05/07 10:51:34;;;;;;;2.10;1.10;;;17.80;36.00;;;;;;5070249;28;20039;-63
2021/05/07 10:54:07;;;;;;;4.60;1.27;;;17.80;35.90;;;;;;5065621;28;20047;-63
2021/05/07 10:56:36;;;;;;;2.38;1.08;;;17.80;36.30;;;;;;5066225;28;20517;-62
2021/05/07 10:59:20;;;;;;;1.85;1.33;;;17.90;36.40;;;;;;5064983;28;20050;-63
2021/05/07 11:02:00;;;;;;;3.15;1.10;;;18.10;36.80;;;;;;5074175;28;20085;-63
2021/05/07 11:04:27;;;;;;;3.33;1.25;;;18.30;36.40;;;;;;5079117;28;20119;-62
2021/05/07 11:07:03;;;;;;;4.10;1.65;;;18.50;36.60;;;;;;5076788;28;20036;-62
2021/05/07 11:09:31;;;;;;;2.92;1.00;;;18.90;37.20;;;;;;5069315;28;20036;-63
2021/05/07 11:12:04;;;;;;;4.07;1.33;;;19.40;35.70;;;;;;5065582;28;20073;-63
2021/05/07 11:14:33;;;;;;;4.88;1.40;;;19.90;35.50;;;;;;5059923;28;20039;-63
2021/05/07 11:17:05;;;;;;;1.70;1.10;;;;;;;;;;5071185;28;20032;-63
2021/05/07 11:19:34;;;;;;;3.15;1.20;;;;;;;;;;5057883;28;20365;-62
2021/05/07 11:22:05;;;;;;;1.35;0.90;;;20.30;33.90;;;;;;5080376;28;20035;-62
2021/05/07 11:24:46;;;;;;;1.27;0.80;;;21.30;33.40;;;;;;5074547;28;20485;-62
2021/05/07 11:27:25;;;;;;;0.88;0.73;;;21.50;33.60;;;;;;5074900;28;20032;-62
2021/05/07 11:30:03;;;;;;;1.48;0.90;;;21.40;30.60;;;;;;5064727;28;20036;-63
2021/05/07 11:32:29;;;;;;;1.88;0.70;;;21.20;30.90;;;;;;5063763;28;20043;-63
2021/05/07 11:35:01;;;;;;;1.17;0.88;;;21.20;30.10;;;;;;5061307;28;20032;-63
2021/05/07 11:37:31;;;;;;;1.60;0.90;;;21.40;29.30;;;;;;5059084;28;20052;-62
2021/05/07 11:40:11;;;;;;;1.27;0.80;;;21.60;29.60;;;;;;5038385;28;20439;-62
2021/05/07 11:42:42;;;;;;;2.10;0.90;;;21.60;29.10;;;;;;5063777;28;20111;-62
2021/05/07 11:45:09;;;;;;;3.72;0.77;;;21.40;30.00;;;;;;5038911;28;20715;-62
2021/05/07 11:47:37;;;;;;;1.73;0.60;;;21.50;29.50;;;;;;5062071;28;20065;-62
2021/05/07 11:50:06;;;;;;;0.70;0.70;;;21.60;28.90;;;;;;5062443;28;20044;-63
2021/05/07 11:53:00;;;;;;;1.52;0.93;;;21.60;28.90;;;;;;5064178;28;20583;-62
2021/05/07 11:55:32;;;;;;;1.75;0.80;;;21.60;29.00;;;;;;5036133;28;20051;-63
2021/05/07 11:57:58;;;;;;;0.70;0.70;;;21.70;28.70;;;;;;5055948;28;20412;-62
2021/05/07 12:00:24;;;;;;;2.13;0.73;;;21.70;28.80;;;;;;5060599;28;20044;-62
2021/05/07 12:03:08;;;;;;;2.13;1.20;;;21.50;28.70;;;;;;5064494;28;20047;-62
2021/05/07 12:05:35;;;;;;;3.45;0.90;;;;;;;;;;5066918;28;20039;-63
2021/05/07 12:08:01;;;;;;;1.85;1.02;;;21.10;28.90;;;;;;5069902;28;20098;-62
2021/05/07 12:10:28;;;;;;;1.40;1.02;;;20.00;29.70;;;;;;5068704;28;20032;-62
2021/05/07 12:12:57;;;;;;;2.42;1.10;;;19.50;30.20;;;;;;5065580;28;20177;-61
2021/05/07 12:15:33;;;;;;;2.63;1.10;;;19.20;31.40;;;;;;5070009;28;20118;-62
2021/05/07 12:17:59;;;;;;;2.65;1.00;;;19.20;31.30;;;;;;5071937;28;20642;-61
2021/05/07 12:20:27;;;;;;;2.47;1.67;;;19.40;31.90;;;;;;5069875;28;20143;-61
2021/05/07 12:22:55;;;;;;;3.20;1.20;;;19.30;32.50;;;;;;5070158;28;20047;-62
2021/05/07 12:25:32;;;;;;;3.17;1.20;;;19.00;32.40;;;;;;5073344;28;20028;-62
2021/05/07 12:28:00;;;;;;;2.70;1.55;;;18.60;33.00;;;;;;5064997;28;20093;-62
2021/05/07 12:30:31;;;;;;;2.88;1.08;;;18.30;34.20;;;;;;5065382;28;20447;-63
2021/05/07 12:33:04;;;;;;;4.57;1.30;;;18.00;34.40;;;;;;5066441;28;20036;-61
2021/05/07 12:35:43;;;;;;;5.10;1.35;;;17.70;35.00;;;;;;5050904;28;20036;-61
2021/05/07 12:38:25;;;;;;;3.85;0.93;;;17.50;35.70;;;;;;5070143;28;20081;-62
2021/05/07 12:40:54;;;;;;;1.50;1.33;;;17.40;36.50;;;;;;5066187;28;20031;-61
2021/05/07 12:43:22;;;;;;;3.45;1.10;;;17.50;36.60;;;;;;5067756;28;20036;-62
2021/05/07 12:45:49;;;;;;;2.22;1.00;;;17.70;36.70;;;;;;5066958;28;20995;-63
2021/05/07 12:48:18;;;;;;;1.70;0.90;;;;;;;;;;5064149;28;20106;-62
2021/05/07 12:50:44;;;;;;;1.63;0.90;;;;;;;;;;5066373;28;20043;-62
2021/05/07 12:53:16;;;;;;;4.18;1.17;;;;;;;;;;5061965;28;20700;-61
2021/05/07 12:55:44;;;;;;;2.95;1.10;;;18.10;37.20;;;;;;5069372;28;20118;-62
2021/05/07 12:58:12;;;;;;;3.05;1.20;;;;;;;;;;5057640;28;20036;-61
2021/05/07 13:00:40;;;;;;;2.20;1.10;;;;;;;;;;5063218;28;20075;-61